sensor_id;sensor_type;location;lat;lon;timestamp;pressure;altitude;pressure_sealevel;temperature;humidity
21240;BME280;10778;48.962;9.018;2023-02-07T00:00:13;101054.75;;;-1.09;94.50
21240;BME280;10778;48.962;9.018;2023-02-07T00:02:44;101054.75;;;-1.07;91.85
21240;BME280;10778;48.962;9.018;2023-02-07T00:05:11;101070.25;;;-1.07;90.83
21240;BME280;10778;48.962;9.018;2023-02-07T00:07:38;101065.09;;;-1.07;89.97
21240;BME280;10778;48.962;9.018;2023-02-07T00:10:05;101063.53;;;-1.27;89.57
21240;BME280;10778;48.962;9.018;2023-02-07T00:12:31;101068.66;;;-1.21;89.75
21240;BME280;10778;48.962;9.018;2023-02-07T00:14:58;101069.59;;;-1.30;88.82
21240;BME280;10778;48.962;9.018;2023-02-07T00:17:24;101066.97;;;-1.26;88.59
21240;BME280;10778;48.962;9.018;2023-02-07T00:19:50;101067.84;;;-1.27;87.21
21240;BME280;10778;48.962;9.018;2023-02-07T00:22:17;101060.97;;;-1.30;86.76
21240;BME280;10778;48.962;9.018;2023-02-07T00:24:43;101068.81;;;-1.39;87.40
21240;BME280;10778;48.962;9.018;2023-02-07T00:27:09;101077.44;;;-1.44;86.52
21240;BME280;10778;48.962;9.018;2023-02-07T00:29:35;101066.25;;;-1.46;87.11
21240;BME280;10778;48.962;9.018;2023-02-07T00:32:01;101067.16;;;-1.48;87.91
21240;BME280;10778;48.962;9.018;2023-02-07T00:34:27;101051.66;;;-1.48;86.91
21240;BME280;10778;48.962;9.018;2023-02-07T00:36:53;101059.41;;;-1.50;86.53
21240;BME280;10778;48.962;9.018;2023-02-07T00:39:19;101058.63;;;-1.58;87.04
21240;BME280;10778;48.962;9.018;2023-02-07T00:41:45;101055.22;;;-1.60;86.61
21240;BME280;10778;48.962;9.018;2023-02-07T00:44:12;101056.94;;;-1.64;86.65
21240;BME280;10778;48.962;9.018;2023-02-07T00:46:38;101054.41;;;-1.70;87.18
21240;BME280;10778;48.962;9.018;2023-02-07T00:49:04;101058.75;;;-1.75;87.67
21240;BME280;10778;48.962;9.018;2023-02-07T00:51:31;101057.91;;;-1.77;88.45
21240;BME280;10778;48.962;9.018;2023-02-07T00:53:58;101063.03;;;-1.71;88.12
21240;BME280;10778;48.962;9.018;2023-02-07T00:56:26;101057.09;;;-1.82;88.46
21240;BME280;10778;48.962;9.018;2023-02-07T00:58:53;101047.56;;;-1.76;87.66
21240;BME280;10778;48.962;9.018;2023-02-07T01:01:19;101051.00;;;-1.75;87.96
21240;BME280;10778;48.962;9.018;2023-02-07T01:03:45;101062.28;;;-1.86;88.73
21240;BME280;10778;48.962;9.018;2023-02-07T01:06:12;101065.75;;;-1.94;88.33
21240;BME280;10778;48.962;9.018;2023-02-07T01:08:39;101070.09;;;-2.01;89.40
21240;BME280;10778;48.962;9.018;2023-02-07T01:11:08;101077.84;;;-2.03;90.68
21240;BME280;10778;48.962;9.018;2023-02-07T01:13:36;101086.47;;;-2.11;90.53
21240;BME280;10778;48.962;9.018;2023-02-07T01:16:03;101096.78;;;-2.11;91.14
21240;BME280;10778;48.962;9.018;2023-02-07T01:18:29;101091.66;;;-2.19;91.67
21240;BME280;10778;48.962;9.018;2023-02-07T01:20:56;101093.34;;;-2.15;90.79
21240;BME280;10778;48.962;9.018;2023-02-07T01:23:22;101083.94;;;-2.18;90.92
21240;BME280;10778;48.962;9.018;2023-02-07T01:25:48;101086.50;;;-2.16;90.35
21240;BME280;10778;48.962;9.018;2023-02-07T01:28:14;101083.06;;;-2.13;90.22
21240;BME280;10778;48.962;9.018;2023-02-07T01:30:42;101078.81;;;-2.25;90.47
21240;BME280;10778;48.962;9.018;2023-02-07T01:33:08;101090.84;;;-2.29;91.96
21240;BME280;10778;48.962;9.018;2023-02-07T01:35:36;101087.44;;;-2.36;91.91
21240;BME280;10778;48.962;9.018;2023-02-07T01:38:03;101091.75;;;-2.33;91.42
21240;BME280;10778;48.962;9.018;2023-02-07T01:40:30;101099.50;;;-2.46;92.26
21240;BME280;10778;48.962;9.018;2023-02-07T01:42:57;101086.63;;;-2.50;92.93
21240;BME280;10778;48.962;9.018;2023-02-07T01:45:31;101078.88;;;-2.39;92.56
21240;BME280;10778;48.962;9.018;2023-02-07T01:48:02;101085.78;;;-2.49;92.64
21240;BME280;10778;48.962;9.018;2023-02-07T01:50:29;101087.53;;;-2.62;93.19
21240;BME280;10778;48.962;9.018;2023-02-07T01:52:58;101091.84;;;-2.64;94.13
21240;BME280;10778;48.962;9.018;2023-02-07T01:55:28;101085.84;;;-2.69;95.11
21240;BME280;10778;48.962;9.018;2023-02-07T01:57:55;101104.75;;;-2.67;96.12
21240;BME280;10778;48.962;9.018;2023-02-07T02:00:22;101091.88;;;-2.74;95.78
21240;BME280;10778;48.962;9.018;2023-02-07T02:02:48;101080.69;;;-2.71;95.51
21240;BME280;10778;48.962;9.018;2023-02-07T02:05:16;101091.84;;;-2.72;95.74
21240;BME280;10778;48.962;9.018;2023-02-07T02:07:43;101086.69;;;-2.67;94.78
21240;BME280;10778;48.962;9.018;2023-02-07T02:10:19;101086.72;;;-2.70;94.25
21240;BME280;10778;48.962;9.018;2023-02-07T02:18:28;101096.19;;;-2.90;94.72
21240;BME280;10778;48.962;9.018;2023-02-07T02:21:34;101085.91;;;-2.88;95.32
21240;BME280;10778;48.962;9.018;2023-02-07T02:24:35;101092.75;;;-2.92;95.32
21240;BME280;10778;48.962;9.018;2023-02-07T02:27:32;101090.19;;;-3.01;96.21
21240;BME280;10778;48.962;9.018;2023-02-07T02:36:40;101074.75;;;-3.01;95.55
21240;BME280;10778;48.962;9.018;2023-02-07T02:39:01;101077.31;;;-2.95;94.89
21240;BME280;10778;48.962;9.018;2023-02-07T02:41:34;101069.59;;;-3.04;94.56
21240;BME280;10778;48.962;9.018;2023-02-07T02:44:30;101070.47;;;-3.07;95.18
21240;BME280;10778;48.962;9.018;2023-02-07T02:47:00;101081.63;;;-3.02;94.53
21240;BME280;10778;48.962;9.018;2023-02-07T02:49:31;101070.47;;;-2.99;94.05
21240;BME280;10778;48.962;9.018;2023-02-07T02:51:58;101079.03;;;-3.03;93.39
21240;BME280;10778;48.962;9.018;2023-02-07T02:54:30;101085.06;;;-3.07;93.92
21240;BME280;10778;48.962;9.018;2023-02-07T03:11:08;101113.38;;;-2.92;90.69
21240;BME280;10778;48.962;9.018;2023-02-07T03:24:03;101120.28;;;-3.08;90.19
21240;BME280;10778;48.962;9.018;2023-02-07T03:26:34;101121.13;;;-3.10;90.09
21240;BME280;10778;48.962;9.018;2023-02-07T03:29:03;101129.69;;;-3.11;89.99
21240;BME280;10778;48.962;9.018;2023-02-07T03:31:33;101128.84;;;-3.21;90.32
21240;BME280;10778;48.962;9.018;2023-02-07T03:34:07;101121.13;;;-3.21;90.97
21240;BME280;10778;48.962;9.018;2023-02-07T03:37:40;101117.69;;;-3.25;91.33
21240;BME280;10778;48.962;9.018;2023-02-07T03:39:39;101115.97;;;-3.29;90.66
21240;BME280;10778;48.962;9.018;2023-02-07T03:44:49;101109.09;;;-3.18;89.82
21240;BME280;10778;48.962;9.018;2023-02-07T03:47:18;101111.69;;;-3.30;90.81
21240;BME280;10778;48.962;9.018;2023-02-07T03:49:44;101107.41;;;-3.28;90.69
21240;BME280;10778;48.962;9.018;2023-02-07T03:52:10;101109.09;;;-3.30;91.20
21240;BME280;10778;48.962;9.018;2023-02-07T03:54:36;101112.53;;;-3.44;91.82
21240;BME280;10778;48.962;9.018;2023-02-07T03:57:02;101115.09;;;-3.50;92.37
21240;BME280;10778;48.962;9.018;2023-02-07T03:59:28;101112.53;;;-3.51;92.48
21240;BME280;10778;48.962;9.018;2023-02-07T04:01:54;101109.09;;;-3.47;91.85
21240;BME280;10778;48.962;9.018;2023-02-07T04:04:20;101102.22;;;-3.54;91.95
21240;BME280;10778;48.962;9.018;2023-02-07T04:06:46;101095.38;;;-3.63;93.06
21240;BME280;10778;48.962;9.018;2023-02-07T04:09:13;101100.50;;;-3.68;93.71
21240;BME280;10778;48.962;9.018;2023-02-07T04:11:39;101088.50;;;-3.72;93.49
21240;BME280;10778;48.962;9.018;2023-02-07T04:14:05;101090.19;;;-3.77;93.67
21240;BME280;10778;48.962;9.018;2023-02-07T04:16:31;101086.75;;;-3.78;94.57
21240;BME280;10778;48.962;9.018;2023-02-07T04:18:57;101086.78;;;-3.76;94.71
21240;BME280;10778;48.962;9.018;2023-02-07T04:21:23;101090.22;;;-3.74;94.26
21240;BME280;10778;48.962;9.018;2023-02-07T04:23:49;101084.22;;;-3.76;94.57
21240;BME280;10778;48.962;9.018;2023-02-07T04:26:16;101084.19;;;-3.73;93.90
21240;BME280;10778;48.962;9.018;2023-02-07T04:28:42;101084.19;;;-3.73;94.20
21240;BME280;10778;48.962;9.018;2023-02-07T04:31:08;101091.91;;;-3.67;92.97
21240;BME280;10778;48.962;9.018;2023-02-07T04:33:34;101083.34;;;-3.66;93.19
21240;BME280;10778;48.962;9.018;2023-02-07T04:36:01;101079.94;;;-3.51;91.04
21240;BME280;10778;48.962;9.018;2023-02-07T04:38:28;101079.91;;;-3.57;89.70
21240;BME280;10778;48.962;9.018;2023-02-07T04:41:02;101078.19;;;-3.60;89.82
21240;BME280;10778;48.962;9.018;2023-02-07T04:43:33;101080.75;;;-3.60;89.77
21240;BME280;10778;48.962;9.018;2023-02-07T04:46:00;101074.75;;;-3.73;89.86
21240;BME280;10778;48.962;9.018;2023-02-07T04:48:26;101075.59;;;-3.78;90.34
21240;BME280;10778;48.962;9.018;2023-02-07T04:50:52;101072.19;;;-3.87;91.63
21240;BME280;10778;48.962;9.018;2023-02-07T04:53:18;101081.59;;;-3.93;92.64
21240;BME280;10778;48.962;9.018;2023-02-07T04:55:49;101083.28;;;-3.94;92.29
21240;BME280;10778;48.962;9.018;2023-02-07T04:58:15;101086.72;;;-3.95;92.51
21240;BME280;10778;48.962;9.018;2023-02-07T05:00:41;101083.31;;;-3.95;91.75
21240;BME280;10778;48.962;9.018;2023-02-07T05:03:08;101090.16;;;-3.97;91.82
21240;BME280;10778;48.962;9.018;2023-02-07T05:05:37;101083.28;;;-3.97;92.10
21240;BME280;10778;48.962;9.018;2023-02-07T05:08:05;101089.28;;;-4.00;91.21
21240;BME280;10778;48.962;9.018;2023-02-07T05:10:31;101089.28;;;-4.04;91.83
21240;BME280;10778;48.962;9.018;2023-02-07T05:12:57;101080.72;;;-3.92;91.74
21240;BME280;10778;48.962;9.018;2023-02-07T05:15:23;101085.88;;;-3.88;91.06
21240;BME280;10778;48.962;9.018;2023-02-07T05:17:51;101088.44;;;-3.92;90.92
21240;BME280;10778;48.962;9.018;2023-02-07T05:20:21;101090.19;;;-3.90;90.09
21240;BME280;10778;48.962;9.018;2023-02-07T05:22:48;101079.03;;;-3.92;89.21
21240;BME280;10778;48.962;9.018;2023-02-07T05:25:15;101072.19;;;-3.83;88.50
21240;BME280;10778;48.962;9.018;2023-02-07T05:27:41;101076.47;;;-3.75;87.87
21240;BME280;10778;48.962;9.018;2023-02-07T05:30:07;101070.47;;;-3.71;87.16
21240;BME280;10778;48.962;9.018;2023-02-07T05:32:33;101078.19;;;-3.84;88.30
21240;BME280;10778;48.962;9.018;2023-02-07T05:35:18;101072.19;;;-3.90;88.80
21240;BME280;10778;48.962;9.018;2023-02-07T05:37:44;101068.75;;;-3.89;88.66
21240;BME280;10778;48.962;9.018;2023-02-07T05:40:10;101079.00;;;-4.01;90.16
21240;BME280;10778;48.962;9.018;2023-02-07T05:42:38;101078.16;;;-4.02;90.08
21240;BME280;10778;48.962;9.018;2023-02-07T05:45:08;101083.25;;;-4.11;91.37
21240;BME280;10778;48.962;9.018;2023-02-07T05:47:34;101085.81;;;-4.16;91.83
21240;BME280;10778;48.962;9.018;2023-02-07T05:50:00;101090.09;;;-4.21;91.40
21240;BME280;10778;48.962;9.018;2023-02-07T05:52:26;101079.03;;;-2.89;100.00
21240;BME280;10778;48.962;9.018;2023-02-07T05:58:41;101081.84;;;-1.53;100.00
21240;BME280;10778;48.962;9.018;2023-02-07T06:01:07;101079.03;;;-1.29;100.00
21240;BME280;10778;48.962;9.018;2023-02-07T06:03:33;101077.06;;;-0.98;93.41
21240;BME280;10778;48.962;9.018;2023-02-07T06:05:59;101077.28;;;-1.25;89.55
21240;BME280;10778;48.962;9.018;2023-02-07T06:08:25;101081.63;;;-1.29;88.80
21240;BME280;10778;48.962;9.018;2023-02-07T06:10:51;101080.16;;;-0.67;89.21
21240;BME280;10778;48.962;9.018;2023-02-07T06:13:17;101073.41;;;-0.80;85.41
21240;BME280;10778;48.962;9.018;2023-02-07T06:15:43;101067.47;;;-0.89;83.07
21240;BME280;10778;48.962;9.018;2023-02-07T06:18:09;101069.19;;;-0.89;81.54
21240;BME280;10778;48.962;9.018;2023-02-07T06:20:35;101076.28;;;-1.08;82.55
21240;BME280;10778;48.962;9.018;2023-02-07T06:23:01;101072.97;;;-1.24;84.56
21240;BME280;10778;48.962;9.018;2023-02-07T06:25:27;101068.28;;;-0.83;83.69
21240;BME280;10778;48.962;9.018;2023-02-07T06:27:53;101082.03;;;-1.86;82.76
21240;BME280;10778;48.962;9.018;2023-02-07T06:30:19;101078.63;;;-1.87;83.91
21240;BME280;10778;48.962;9.018;2023-02-07T06:32:45;101079.91;;;-1.31;84.67
21240;BME280;10778;48.962;9.018;2023-02-07T06:35:11;101087.44;;;-2.30;82.30
21240;BME280;10778;48.962;9.018;2023-02-07T06:37:37;101098.56;;;-2.23;88.59
21240;BME280;10778;48.962;9.018;2023-02-07T06:40:05;101096.22;;;-3.07;86.36
21240;BME280;10778;48.962;9.018;2023-02-07T06:42:31;101097.94;;;-3.46;88.48
21240;BME280;10778;48.962;9.018;2023-02-07T06:44:57;101096.22;;;-3.66;89.43
21240;BME280;10778;48.962;9.018;2023-02-07T06:47:23;101103.88;;;-3.95;91.07
21240;BME280;10778;48.962;9.018;2023-02-07T06:49:49;101102.94;;;-4.18;92.20
21240;BME280;10778;48.962;9.018;2023-02-07T06:52:15;101097.75;;;-4.35;93.85
21240;BME280;10778;48.962;9.018;2023-02-07T06:54:41;101111.34;;;-4.59;95.22
21240;BME280;10778;48.962;9.018;2023-02-07T06:57:07;101120.78;;;-4.53;96.48
21240;BME280;10778;48.962;9.018;2023-02-07T06:59:33;101132.69;;;-4.63;96.96
21240;BME280;10778;48.962;9.018;2023-02-07T07:01:59;101139.47;;;-4.73;97.12
21240;BME280;10778;48.962;9.018;2023-02-07T07:04:26;101136.94;;;-4.75;96.98
21240;BME280;10778;48.962;9.018;2023-02-07T07:06:52;101130.91;;;-4.78;97.47
21240;BME280;10778;48.962;9.018;2023-02-07T07:09:18;101119.00;;;-4.67;99.50
21240;BME280;10778;48.962;9.018;2023-02-07T07:11:44;101131.16;;;-4.35;100.00
21240;BME280;10778;48.962;9.018;2023-02-07T07:14:10;101139.69;;;-4.39;98.56
21240;BME280;10778;48.962;9.018;2023-02-07T07:16:36;101139.72;;;-4.34;97.16
21240;BME280;10778;48.962;9.018;2023-02-07T07:19:03;101141.41;;;-4.33;95.09
21240;BME280;10778;48.962;9.018;2023-02-07T07:21:29;101144.28;;;-3.03;91.94
21240;BME280;10778;48.962;9.018;2023-02-07T07:23:55;101139.69;;;-1.90;83.85
21240;BME280;10778;48.962;9.018;2023-02-07T07:26:21;101138.81;;;-1.86;81.23
21240;BME280;10778;48.962;9.018;2023-02-07T07:28:47;101122.16;;;-0.45;76.52
21240;BME280;10778;48.962;9.018;2023-02-07T07:31:14;101123.66;;;0.96;73.74
21240;BME280;10778;48.962;9.018;2023-02-07T07:33:41;101120.34;;;2.21;68.50
21240;BME280;10778;48.962;9.018;2023-02-07T07:36:07;101109.50;;;2.78;64.97
21240;BME280;10778;48.962;9.018;2023-02-07T07:38:33;101109.78;;;2.65;61.49
21240;BME280;10778;48.962;9.018;2023-02-07T07:40:59;101107.53;;;3.21;60.99
21240;BME280;10778;48.962;9.018;2023-02-07T07:43:25;101106.94;;;4.04;58.97
21240;BME280;10778;48.962;9.018;2023-02-07T07:45:54;101104.59;;;3.65;57.48
21240;BME280;10778;48.962;9.018;2023-02-07T07:48:22;101111.91;;;2.86;60.17
21240;BME280;10778;48.962;9.018;2023-02-07T07:50:49;101107.44;;;3.57;59.51
21240;BME280;10778;48.962;9.018;2023-02-07T07:53:15;101110.66;;;4.25;55.90
21240;BME280;10778;48.962;9.018;2023-02-07T07:55:50;101106.53;;;5.50;56.36
21240;BME280;10778;48.962;9.018;2023-02-07T07:58:16;101103.97;;;5.72;52.00
21240;BME280;10778;48.962;9.018;2023-02-07T08:00:44;101106.50;;;6.66;49.62
21240;BME280;10778;48.962;9.018;2023-02-07T08:03:10;101113.81;;;6.13;49.60
21240;BME280;10778;48.962;9.018;2023-02-07T08:05:38;101121.97;;;6.04;51.34
21240;BME280;10778;48.962;9.018;2023-02-07T08:08:04;101120.50;;;6.43;50.29
21240;BME280;10778;48.962;9.018;2023-02-07T08:10:30;101127.00;;;6.54;48.78
21240;BME280;10778;48.962;9.018;2023-02-07T08:12:56;101133.53;;;6.87;47.77
21240;BME280;10778;48.962;9.018;2023-02-07T08:15:23;101134.13;;;6.51;48.16
21240;BME280;10778;48.962;9.018;2023-02-07T08:17:49;101136.84;;;6.25;48.03
21240;BME280;10778;48.962;9.018;2023-02-07T08:20:16;101147.41;;;5.98;49.68
21240;BME280;10778;48.962;9.018;2023-02-07T08:22:42;101148.59;;;6.37;49.11
21240;BME280;10778;48.962;9.018;2023-02-07T08:25:08;101158.59;;;5.29;48.75
21240;BME280;10778;48.962;9.018;2023-02-07T08:27:35;101156.97;;;5.76;49.52
21240;BME280;10778;48.962;9.018;2023-02-07T08:30:01;101159.44;;;6.04;48.67
21240;BME280;10778;48.962;9.018;2023-02-07T08:32:27;101156.75;;;5.57;49.78
21240;BME280;10778;48.962;9.018;2023-02-07T08:34:54;101170.78;;;4.75;50.73
21240;BME280;10778;48.962;9.018;2023-02-07T08:37:20;101164.06;;;5.21;50.20
21240;BME280;10778;48.962;9.018;2023-02-07T08:39:47;101169.03;;;6.04;49.43
21240;BME280;10778;48.962;9.018;2023-02-07T08:42:18;101157.59;;;6.95;48.74
21240;BME280;10778;48.962;9.018;2023-02-07T08:44:47;101166.34;;;6.51;48.74
21240;BME280;10778;48.962;9.018;2023-02-07T08:47:15;101163.31;;;6.62;49.08
21240;BME280;10778;48.962;9.018;2023-02-07T08:49:42;101153.94;;;6.34;47.93
21240;BME280;10778;48.962;9.018;2023-02-07T08:52:08;101153.09;;;7.80;46.47
21240;BME280;10778;48.962;9.018;2023-02-07T08:54:35;101141.97;;;7.56;46.14
21240;BME280;10778;48.962;9.018;2023-02-07T08:57:01;101145.13;;;7.23;45.50
21240;BME280;10778;48.962;9.018;2023-02-07T08:59:27;101142.38;;;7.26;46.66
21240;BME280;10778;48.962;9.018;2023-02-07T09:01:53;101137.78;;;7.52;46.29
21240;BME280;10778;48.962;9.018;2023-02-07T09:04:19;101151.84;;;7.89;45.88
21240;BME280;10778;48.962;9.018;2023-02-07T09:06:46;101150.72;;;6.93;47.07
21240;BME280;10778;48.962;9.018;2023-02-07T09:09:12;101141.22;;;6.69;46.97
21240;BME280;10778;48.962;9.018;2023-02-07T09:11:38;101137.72;;;7.12;47.44
21240;BME280;10778;48.962;9.018;2023-02-07T09:14:05;101134.47;;;7.87;45.94
21240;BME280;10778;48.962;9.018;2023-02-07T09:16:31;101139.88;;;7.64;45.16
21240;BME280;10778;48.962;9.018;2023-02-07T09:18:57;101145.75;;;7.69;46.47
21240;BME280;10778;48.962;9.018;2023-02-07T09:21:23;101143.66;;;7.57;45.74
21240;BME280;10778;48.962;9.018;2023-02-07T09:23:49;101135.69;;;8.18;45.54
21240;BME280;10778;48.962;9.018;2023-02-07T09:26:20;101143.53;;;7.39;45.04
21240;BME280;10778;48.962;9.018;2023-02-07T09:28:46;101151.25;;;6.80;46.88
21240;BME280;10778;48.962;9.018;2023-02-07T09:31:13;101136.00;;;7.52;45.77
21240;BME280;10778;48.962;9.018;2023-02-07T09:33:40;101147.88;;;7.20;46.01
21240;BME280;10778;48.962;9.018;2023-02-07T09:36:19;101135.56;;;8.02;45.97
21240;BME280;10778;48.962;9.018;2023-02-07T09:38:46;101150.28;;;8.23;46.21
21240;BME280;10778;48.962;9.018;2023-02-07T09:49:24;101164.16;;;6.63;46.52
21240;BME280;10778;48.962;9.018;2023-02-07T09:51:53;101153.69;;;7.47;46.68
21240;BME280;10778;48.962;9.018;2023-02-07T09:54:42;101152.28;;;7.99;45.53
21240;BME280;10778;48.962;9.018;2023-02-07T09:57:17;101152.00;;;8.05;44.87
21240;BME280;10778;48.962;9.018;2023-02-07T09:59:54;101145.19;;;8.39;44.93
21240;BME280;10778;48.962;9.018;2023-02-07T10:02:43;101153.28;;;9.07;43.81
21240;BME280;10778;48.962;9.018;2023-02-07T10:05:18;101155.06;;;8.15;43.53
21240;BME280;10778;48.962;9.018;2023-02-07T10:07:46;101161.88;;;7.39;45.24
21240;BME280;10778;48.962;9.018;2023-02-07T10:10:18;101168.88;;;7.18;45.20
21240;BME280;10778;48.962;9.018;2023-02-07T10:13:00;101175.97;;;7.58;45.83
21240;BME280;10778;48.962;9.018;2023-02-07T10:18:25;101177.41;;;7.03;46.91
21240;BME280;10778;48.962;9.018;2023-02-07T10:21:11;101175.75;;;7.42;45.71
21240;BME280;10778;48.962;9.018;2023-02-07T10:23:55;101165.72;;;7.72;46.54
21240;BME280;10778;48.962;9.018;2023-02-07T10:31:59;101167.66;;;7.67;46.30
21240;BME280;10778;48.962;9.018;2023-02-07T10:34:36;101165.59;;;6.92;45.76
21240;BME280;10778;48.962;9.018;2023-02-07T10:37:22;101170.41;;;6.59;48.08
21240;BME280;10778;48.962;9.018;2023-02-07T10:40:10;101171.72;;;5.77;49.47
21240;BME280;10778;48.962;9.018;2023-02-07T10:42:38;101172.25;;;6.10;50.04
21240;BME280;10778;48.962;9.018;2023-02-07T10:45:05;101173.41;;;6.49;49.12
21240;BME280;10778;48.962;9.018;2023-02-07T10:47:37;101172.03;;;6.39;48.60
21240;BME280;10778;48.962;9.018;2023-02-07T10:50:10;101172.00;;;6.85;47.64
21240;BME280;10778;48.962;9.018;2023-02-07T10:52:40;101176.75;;;6.07;49.26
21240;BME280;10778;48.962;9.018;2023-02-07T10:55:11;101182.59;;;6.60;48.51
21240;BME280;10778;48.962;9.018;2023-02-07T10:57:37;101176.25;;;6.65;50.30
21240;BME280;10778;48.962;9.018;2023-02-07T11:02:44;101175.09;;;6.28;49.34
21240;BME280;10778;48.962;9.018;2023-02-07T11:07:41;101179.03;;;4.89;51.39
21240;BME280;10778;48.962;9.018;2023-02-07T11:10:19;101179.50;;;5.53;52.10
21240;BME280;10778;48.962;9.018;2023-02-07T11:12:56;101170.72;;;6.29;50.07
21240;BME280;10778;48.962;9.018;2023-02-07T11:15:50;101178.41;;;6.09;51.87
21240;BME280;10778;48.962;9.018;2023-02-07T11:20:48;101178.31;;;6.35;51.52
21240;BME280;10778;48.962;9.018;2023-02-07T11:23:17;101176.44;;;5.67;52.66
21240;BME280;10778;48.962;9.018;2023-02-07T11:25:45;101167.34;;;5.77;50.92
21240;BME280;10778;48.962;9.018;2023-02-07T11:28:19;101164.25;;;5.91;52.30
21240;BME280;10778;48.962;9.018;2023-02-07T11:30:52;101164.34;;;5.39;52.02
21240;BME280;10778;48.962;9.018;2023-02-07T11:33:25;101171.88;;;4.96;53.24
21240;BME280;10778;48.962;9.018;2023-02-07T11:38:28;101173.81;;;5.16;53.60
21240;BME280;10778;48.962;9.018;2023-02-07T11:40:58;101174.34;;;5.26;53.03
21240;BME280;10778;48.962;9.018;2023-02-07T11:43:26;101169.72;;;6.09;51.65
21240;BME280;10778;48.962;9.018;2023-02-07T11:45:58;101168.69;;;5.64;53.08
21240;BME280;10778;48.962;9.018;2023-02-07T11:48:27;101167.56;;;5.95;52.67
21240;BME280;10778;48.962;9.018;2023-02-07T11:50:58;101161.56;;;5.69;51.60
21240;BME280;10778;48.962;9.018;2023-02-07T11:56:16;101171.16;;;4.91;54.67
21240;BME280;10778;48.962;9.018;2023-02-07T11:58:44;101168.53;;;5.68;52.88
21240;BME280;10778;48.962;9.018;2023-02-07T12:01:21;101160.47;;;5.75;51.84
21240;BME280;10778;48.962;9.018;2023-02-07T12:04:11;101162.94;;;5.29;53.60
21240;BME280;10778;48.962;9.018;2023-02-07T12:06:43;101153.88;;;5.88;52.10
21240;BME280;10778;48.962;9.018;2023-02-07T12:11:45;101149.91;;;5.78;53.07
21240;BME280;10778;48.962;9.018;2023-02-07T12:14:23;101139.91;;;5.65;51.98
21240;BME280;10778;48.962;9.018;2023-02-07T12:16:55;101133.94;;;5.62;54.10
21240;BME280;10778;48.962;9.018;2023-02-07T12:19:41;101144.84;;;5.24;54.00
21240;BME280;10778;48.962;9.018;2023-02-07T12:22:18;101143.91;;;4.73;53.97
21240;BME280;10778;48.962;9.018;2023-02-07T12:27:24;101130.78;;;5.28;50.99
21240;BME280;10778;48.962;9.018;2023-02-07T12:32:39;101121.47;;;5.70;51.13
21240;BME280;10778;48.962;9.018;2023-02-07T12:40:46;101117.25;;;5.90;51.85
21240;BME280;10778;48.962;9.018;2023-02-07T12:43:22;101117.88;;;5.96;51.68
21240;BME280;10778;48.962;9.018;2023-02-07T12:45:53;101116.63;;;5.83;50.55
21240;BME280;10778;48.962;9.018;2023-02-07T12:57:19;101094.53;;;5.92;51.46
21240;BME280;10778;48.962;9.018;2023-02-07T13:06:01;101090.94;;;7.25;46.33
21240;BME280;10778;48.962;9.018;2023-02-07T13:08:51;101081.97;;;7.10;47.20
21240;BME280;10778;48.962;9.018;2023-02-07T13:11:42;101082.69;;;6.93;49.02
21240;BME280;10778;48.962;9.018;2023-02-07T13:22:07;101077.75;;;7.66;46.84
21240;BME280;10778;48.962;9.018;2023-02-07T13:24:38;101080.44;;;7.46;46.95
21240;BME280;10778;48.962;9.018;2023-02-07T13:27:11;101073.56;;;6.82;44.75
21240;BME280;10778;48.962;9.018;2023-02-07T13:29:43;101076.03;;;6.86;46.31
21240;BME280;10778;48.962;9.018;2023-02-07T13:32:40;101075.31;;;7.23;46.96
21240;BME280;10778;48.962;9.018;2023-02-07T13:35:11;101074.13;;;7.50;47.26
21240;BME280;10778;48.962;9.018;2023-02-07T13:43:42;101090.16;;;6.61;47.10
21240;BME280;10778;48.962;9.018;2023-02-07T13:46:42;101080.75;;;6.98;47.39
21240;BME280;10778;48.962;9.018;2023-02-07T13:52:11;101086.16;;;6.73;49.58
21240;BME280;10778;48.962;9.018;2023-02-07T13:57:38;101092.31;;;6.05;48.49
21240;BME280;10778;48.962;9.018;2023-02-07T14:00:32;101090.50;;;5.83;49.04
21240;BME280;10778;48.962;9.018;2023-02-07T14:03:04;101087.41;;;5.73;48.28
21240;BME280;10778;48.962;9.018;2023-02-07T14:05:42;101096.38;;;5.66;49.43
21240;BME280;10778;48.962;9.018;2023-02-07T14:15:55;101071.97;;;5.89;50.40
21240;BME280;10778;48.962;9.018;2023-02-07T14:18:36;101078.66;;;6.20;49.89
21240;BME280;10778;48.962;9.018;2023-02-07T14:29:38;101075.25;;;6.18;49.27
21240;BME280;10778;48.962;9.018;2023-02-07T14:35:00;101071.63;;;6.65;48.15
21240;BME280;10778;48.962;9.018;2023-02-07T14:37:48;101076.63;;;6.92;48.80
21240;BME280;10778;48.962;9.018;2023-02-07T14:40:22;101069.78;;;6.67;48.19
21240;BME280;10778;48.962;9.018;2023-02-07T14:43:05;101085.97;;;6.12;49.75
21240;BME280;10778;48.962;9.018;2023-02-07T14:45:35;101074.19;;;6.67;48.67
21240;BME280;10778;48.962;9.018;2023-02-07T14:50:54;101075.75;;;6.92;48.32
21240;BME280;10778;48.962;9.018;2023-02-07T14:53:20;101074.31;;;6.64;47.12
21240;BME280;10778;48.962;9.018;2023-02-07T14:55:51;101066.34;;;6.67;47.41
21240;BME280;10778;48.962;9.018;2023-02-07T14:58:39;101074.31;;;6.64;46.84
21240;BME280;10778;48.962;9.018;2023-02-07T15:01:11;101084.09;;;6.59;45.97
21240;BME280;10778;48.962;9.018;2023-02-07T15:03:37;101072.69;;;6.39;42.54
21240;BME280;10778;48.962;9.018;2023-02-07T15:06:16;101072.22;;;6.29;43.04
21240;BME280;10778;48.962;9.018;2023-02-07T15:08:55;101082.38;;;5.91;43.49
21240;BME280;10778;48.962;9.018;2023-02-07T15:11:23;101077.56;;;5.80;45.52
21240;BME280;10778;48.962;9.018;2023-02-07T15:13:54;101076.94;;;5.73;44.89
21240;BME280;10778;48.962;9.018;2023-02-07T15:16:28;101078.94;;;5.66;46.48
21240;BME280;10778;48.962;9.018;2023-02-07T15:21:45;101073.66;;;5.68;49.71
21240;BME280;10778;48.962;9.018;2023-02-07T15:24:25;101078.53;;;5.53;47.72
21240;BME280;10778;48.962;9.018;2023-02-07T15:26:55;101082.09;;;5.27;44.73
21240;BME280;10778;48.962;9.018;2023-02-07T15:29:25;101085.75;;;4.97;46.35
21240;BME280;10778;48.962;9.018;2023-02-07T15:31:52;101100.88;;;4.86;48.55
21240;BME280;10778;48.962;9.018;2023-02-07T15:34:21;101089.25;;;4.69;47.24